Time;durP1;ratioP1;P1;durP2;ratioP2;P2;SDS_P1;SDS_P2;PMS_P1;PMS_P2;Temp;Humidity;BMP_temperature;BMP_pressure;BME280_temperature;BME280_humidity;BME280_pressure;Samples;Min_cycle;Max_cycle;Signal;HPM_P1;HPM_P2
2021/12/14 00:02:04;;;;;;;66.50;31.90;;;;;;;;;;4998603;28;20033;-76
2021/12/14 00:04:33;;;;;;;63.92;31.95;;;;;;;;;;4998525;28;20075;-75
2021/12/14 00:07:01;;;;;;;66.53;30.55;;;;;;;;;;4999242;28;20021;-76
2021/12/14 00:09:32;;;;;;;71.95;33.45;;;;;;;;;;4999644;28;20069;-76
2021/12/14 00:17:07;;;;;;;68.03;33.70;;;;;;;;;;4999572;28;20019;-76
2021/12/14 00:19:33;;;;;;;82.78;39.05;;;;;;;;;;4998926;28;20025;-75
2021/12/14 00:22:05;;;;;;;77.22;40.45;;;;;;;;;;4999004;28;20507;-76
2021/12/14 00:24:32;;;;;;;76.10;37.10;;;;;;;;;;5001009;28;20034;-76
2021/12/14 00:27:01;;;;;;;88.57;38.85;;;;;;;;;;4999357;28;20026;-75
2021/12/14 00:29:32;;;;;;;98.28;47.35;;;;;;;;;;4999258;28;20157;-75
2021/12/14 00:32:01;;;;;;;85.03;43.63;;;;;;;;;;4999333;28;20022;-76
2021/12/14 00:34:39;;;;;;;66.45;38.33;;;;;;;;;;4997958;28;20019;-76
2021/12/14 00:37:09;;;;;;;84.65;42.05;;;;;;;;;;4999110;28;20038;-76
2021/12/14 00:39:35;;;;;;;103.20;47.17;;;;;;;;;;4998814;28;20022;-76
2021/12/14 00:42:02;;;;;;;99.40;54.05;;;;;;;;;;4998947;28;20318;-76
2021/12/14 00:44:28;;;;;;;102.38;58.55;;;;;;;;;;4998559;28;20022;-76
2021/12/14 00:46:54;;;;;;;104.78;58.08;;;;;;;;;;4998415;28;20018;-76
2021/12/14 00:49:20;;;;;;;106.82;57.03;;;;;;;;;;4998757;28;20117;-76
2021/12/14 00:51:47;;;;;;;95.05;53.72;;;;;;;;;;4998927;28;20026;-76
2021/12/14 00:54:14;;;;;;;97.63;52.42;;;;;;;;;;4998797;28;20421;-76
2021/12/14 00:56:40;;;;;;;94.07;44.92;;;;;;;;;;4998839;28;20018;-76
2021/12/14 00:59:07;;;;;;;99.55;44.10;;;;;;;;;;4998755;28;20030;-76
2021/12/14 01:01:36;;;;;;;76.28;40.42;;;;;;;;;;4998576;28;20129;-76
2021/12/14 01:04:04;;;;;;;85.88;42.17;;;;;;;;;;4998542;28;20021;-76
2021/12/14 01:06:32;;;;;;;83.65;43.17;;;;;;;;;;4997999;28;20018;-76
2021/12/14 01:08:58;;;;;;;74.22;31.25;;;;;;;;;;4997964;28;20037;-76
2021/12/14 01:11:29;;;;;;;77.15;29.73;;;;;;;;;;4997002;28;20030;-76
2021/12/14 01:13:59;;;;;;;;;;;;;;;;;;4998676;28;20022;-76
2021/12/14 01:16:36;;;;;;;62.58;28.98;;;;;;;;;;4998339;28;19917;-76
2021/12/14 01:19:19;;;;;;;72.40;30.67;;;;;;;;;;4998290;28;20416;-76
2021/12/14 01:25:00;;;;;;;75.75;31.63;;;;;;;;;;4997370;28;20030;-76
2021/12/14 01:27:27;;;;;;;108.68;48.33;;;;;;;;;;4997463;28;20037;-76
2021/12/14 01:29:54;;;;;;;121.72;55.20;;;;;;;;;;4996616;28;20433;-76
2021/12/14 01:32:33;;;;;;;128.10;55.30;;;;;;;;;;4978250;28;20022;-75
2021/12/14 01:35:01;;;;;;;129.85;56.72;;;;;;;;;;4997470;28;20022;-75
2021/12/14 01:37:38;;;;;;;145.60;64.70;;;;;;;;;;4995722;28;20022;-75
2021/12/14 01:40:16;;;;;;;148.60;63.15;;;;;;;;;;4995946;28;20033;-75
2021/12/14 01:42:43;;;;;;;139.52;69.10;;;;;;;;;;4980368;28;20101;-75
2021/12/14 01:45:12;;;;;;;144.57;71.25;;;;;;;;;;4979526;28;20030;-75
2021/12/14 01:47:41;;;;;;;154.43;73.40;;;;;;;;;;4997679;28;20029;-75
2021/12/14 01:50:10;;;;;;;141.05;68.38;;;;;;;;;;4998845;28;20089;-75
2021/12/14 01:52:36;;;;;;;126.72;61.58;;;;;;;;;;4994874;28;20077;-75
2021/12/14 01:55:23;;;;;;;119.63;60.22;;;;;;;;;;4995311;28;20029;-75
2021/12/14 01:57:49;;;;;;;104.50;48.65;;;;;;;;;;4996213;28;20041;-75
2021/12/14 02:00:21;;;;;;;73.63;35.97;;;;;;;;;;4996022;28;20061;-76
2021/12/14 02:02:47;;;;;;;78.38;36.55;;;;;;;;;;4995199;28;20026;-75
2021/12/14 02:05:23;;;;;;;78.78;39.63;;;;;;;;;;4995133;28;20023;-75
2021/12/14 02:07:49;;;;;;;88.15;36.83;;;;;;;;;;4994850;28;20069;-75
2021/12/14 02:10:26;;;;;;;76.15;36.30;;;;;;;;;;4996016;28;20026;-75
2021/12/14 02:12:53;;;;;;;77.75;33.83;;;;;;;;;;4978406;28;20046;-74
2021/12/14 02:15:28;;;;;;;69.07;32.70;;;;;;;;;;4995527;28;20069;-75
2021/12/14 02:17:55;;;;;;;80.68;36.83;;;;;;;;;;4996430;28;20358;-75
2021/12/14 02:20:25;;;;;;;66.97;34.85;;;;;;;;;;4996194;28;20023;-76
2021/12/14 02:22:52;;;;;;;73.20;34.87;;;;;;;;;;4977806;28;20030;-76
2021/12/14 02:25:18;;;;;;;61.85;33.08;;;;;;;;;;4995063;28;20022;-76
2021/12/14 02:27:47;;;;;;;65.65;37.70;;;;;;;;;;4996348;28;20405;-75
2021/12/14 02:30:16;;;;;;;77.07;35.70;;;;;;;;;;4995357;28;20022;-75
2021/12/14 02:32:43;;;;;;;65.55;32.45;;;;;;;;;;4996531;28;20026;-76
2021/12/14 02:35:10;;;;;;;65.82;34.13;;;;;;;;;;4995115;28;20027;-75
2021/12/14 02:37:43;;;;;;;65.78;34.92;;;;;;;;;;4978129;28;20018;-74
2021/12/14 02:40:30;;;;;;;75.45;35.78;;;;;;;;;;4995089;28;20030;-75
2021/12/14 02:42:57;;;;;;;73.60;34.58;;;;;;;;;;4978442;28;20018;-75
2021/12/14 02:45:24;;;;;;;83.72;36.10;;;;;;;;;;4994473;28;20366;-75
2021/12/14 02:47:50;;;;;;;71.15;40.10;;;;;;;;;;4994811;28;20050;-75
2021/12/14 02:50:16;;;;;;;81.60;40.45;;;;;;;;;;4994491;28;20109;-74
2021/12/14 02:52:42;;;;;;;83.75;39.60;;;;;;;;;;4994992;28;20030;-75
2021/12/14 02:55:11;;;;;;;94.57;46.55;;;;;;;;;;4993026;28;20045;-75
2021/12/14 02:57:39;;;;;;;94.35;40.70;;;;;;;;;;4977369;28;20328;-74
2021/12/14 03:00:07;;;;;;;82.45;36.90;;;;;;;;;;4995198;28;20344;-75
2021/12/14 03:02:34;;;;;;;88.90;38.78;;;;;;;;;;4996940;28;20110;-74
2021/12/14 03:05:02;;;;;;;83.47;38.67;;;;;;;;;;4996803;28;20027;-74
2021/12/14 03:07:29;;;;;;;80.82;33.53;;;;;;;;;;4997641;28;20026;-75
2021/12/14 03:10:01;;;;;;;83.25;36.72;;;;;;;;;;4994553;28;20038;-75
2021/12/14 03:12:32;;;;;;;93.53;42.00;;;;;;;;;;4995749;28;20026;-76
2021/12/14 03:15:17;;;;;;;90.38;39.63;;;;;;;;;;4997446;28;20093;-76
2021/12/14 03:17:43;;;;;;;102.18;37.80;;;;;;;;;;4996517;28;20336;-76
2021/12/14 03:20:18;;;;;;;81.63;37.78;;;;;;;;;;4998000;28;20392;-76
2021/12/14 03:23:04;;;;;;;86.22;38.53;;;;;;;;;;4998249;28;20033;-75
2021/12/14 03:25:33;;;;;;;96.63;41.65;;;;;;;;;;4981383;28;20018;-75
2021/12/14 03:28:00;;;;;;;107.22;49.13;;;;;;;;;;4997765;28;20019;-74
2021/12/14 03:30:26;;;;;;;115.47;50.72;;;;;;;;;;4998380;28;20037;-75
2021/12/14 03:32:53;;;;;;;112.80;43.67;;;;;;;;;;4999186;28;20018;-75
2021/12/14 03:35:19;;;;;;;96.53;44.17;;;;;;;;;;4997581;28;20409;-74
2021/12/14 03:37:48;;;;;;;106.20;44.80;;;;;;;;;;4997045;28;20030;-74
2021/12/14 03:42:42;;;;;;;109.72;45.08;;;;;;;;;;5001680;23;20061;-75
2021/12/14 03:45:11;;;;;;;102.85;40.80;;;;;;;;;;4998351;28;20018;-76
2021/12/14 03:47:44;;;;;;;112.68;45.00;;;;;;;;;;5020998;23;20043;-75
2021/12/14 03:50:22;;;;;;;108.18;45.95;;;;;;;;;;4999050;28;20038;-74
2021/12/14 03:52:51;;;;;;;;;;;;;;;;;;4999213;28;20066;-74
2021/12/14 03:55:22;;;;;;;121.60;43.10;;;;;;;;;;4997494;28;19910;-75
2021/12/14 03:57:49;;;;;;;86.80;42.25;;;;;;;;;;5010982;23;20104;-74
2021/12/14 04:00:20;;;;;;;84.28;38.78;;;;;;;;;;4997970;28;20025;-74
2021/12/14 04:02:47;;;;;;;78.65;39.53;;;;;;;;;;4998825;28;20014;-75
2021/12/14 04:05:13;;;;;;;91.40;40.25;;;;;;;;;;4998537;28;20087;-75
2021/12/14 04:07:41;;;;;;;79.53;37.22;;;;;;;;;;4997860;28;20030;-74
2021/12/14 04:10:12;;;;;;;104.05;40.95;;;;;;;;;;5002615;23;20097;-76
2021/12/14 04:12:39;;;;;;;95.15;40.85;;;;;;;;;;4996393;28;20030;-75
2021/12/14 04:15:06;;;;;;;92.60;44.17;;;;;;;;;;4997759;28;20026;-75
2021/12/14 04:17:32;;;;;;;107.38;46.78;;;;;;;;;;4980107;28;20022;-75
2021/12/14 04:19:58;;;;;;;138.73;59.88;;;;;;;;;;4995542;28;20025;-76
2021/12/14 04:22:30;;;;;;;110.82;49.83;;;;;;;;;;4977704;28;20456;-74
2021/12/14 04:24:58;;;;;;;112.15;48.53;;;;;;;;;;4994785;28;20473;-75
2021/12/14 04:27:26;;;;;;;130.73;49.97;;;;;;;;;;4992973;28;20030;-74
2021/12/14 04:29:53;;;;;;;93.57;45.58;;;;;;;;;;4991509;28;20035;-76
2021/12/14 04:32:20;;;;;;;79.57;33.35;;;;;;;;;;4994250;28;20022;-74
2021/12/14 04:34:49;;;;;;;72.07;32.60;;;;;;;;;;4976657;28;20035;-74
2021/12/14 04:37:17;;;;;;;71.15;30.98;;;;;;;;;;4992636;28;20429;-74
2021/12/14 04:39:54;;;;;;;70.30;29.23;;;;;;;;;;4993808;28;20018;-75
2021/12/14 04:53:24;;;;;;;49.00;23.58;;;;;;;;;;4993803;28;20018;-75
2021/12/14 04:55:54;;;;;;;61.50;24.25;;;;;;;;;;4994609;28;20049;-74
2021/12/14 04:58:28;;;;;;;40.78;18.55;;;;;;;;;;4978247;28;20022;-76
2021/12/14 05:00:56;;;;;;;37.58;19.63;;;;;;;;;;4996381;28;20025;-76
2021/12/14 05:03:24;;;;;;;44.75;21.77;;;;;;;;;;4992630;28;20429;-76
2021/12/14 05:05:58;;;;;;;35.55;17.08;;;;;;;;;;4994462;28;20018;-76
2021/12/14 05:10:57;;;;;;;36.45;18.55;;;;;;;;;;5046564;23;20061;-77
2021/12/14 05:13:31;;;;;;;44.20;19.70;;;;;;;;;;5015124;23;20335;-77
2021/12/14 05:15:57;;;;;;;49.75;20.88;;;;;;;;;;5113854;23;20056;-77
2021/12/14 05:18:24;;;;;;;48.28;22.67;;;;;;;;;;4993855;28;20034;-76
2021/12/14 05:20:50;;;;;;;46.92;19.55;;;;;;;;;;4995245;28;20026;-76
2021/12/14 05:23:31;;;;;;;47.00;22.67;;;;;;;;;;4995267;28;20455;-77
2021/12/14 05:25:58;;;;;;;50.35;24.27;;;;;;;;;;4994975;28;20042;-77
2021/12/14 05:31:07;;;;;;;64.38;31.13;;;;;;;;;;4944522;23;20033;-77
2021/12/14 05:33:37;;;;;;;88.07;42.92;;;;;;;;;;4994861;28;20081;-76
2021/12/14 05:36:09;;;;;;;133.50;59.97;;;;;;;;;;4977162;28;20193;-76
2021/12/14 05:44:21;;;;;;;181.70;95.32;;;;;;;;;;4993957;28;20032;-77
2021/12/14 05:46:52;;;;;;;215.50;102.93;;;;;;;;;;4994249;28;20060;-76
2021/12/14 05:49:20;;;;;;;233.15;110.90;;;;;;;;;;5044036;23;20447;-77
2021/12/14 05:51:54;;;;;;;232.35;130.27;;;;;;;;;;4992640;28;20030;-76
2021/12/14 05:54:25;;;;;;;231.77;135.85;;;;;;;;;;5000256;28;20021;-76
2021/12/14 05:56:52;;;;;;;233.73;135.73;;;;;;;;;;4994273;28;20019;-75
2021/12/14 05:59:19;;;;;;;200.35;115.85;;;;;;;;;;4994120;28;20082;-75
2021/12/14 06:01:46;;;;;;;193.52;109.47;;;;;;;;;;4992969;28;20282;-75
2021/12/14 06:04:14;;;;;;;187.15;107.05;;;;;;;;;;4994415;28;20027;-75
2021/12/14 06:06:42;;;;;;;233.70;122.97;;;;;;;;;;4993846;28;20049;-75
2021/12/14 06:09:16;;;;;;;199.82;107.18;;;;;;;;;;4978771;28;20038;-75
2021/12/14 06:11:45;;;;;;;196.38;106.00;;;;;;;;;;4992757;28;20029;-74
2021/12/14 06:14:14;;;;;;;207.25;104.72;;;;;;;;;;4995283;28;20042;-74
2021/12/14 06:16:42;;;;;;;130.23;73.18;;;;;;;;;;4991468;28;20349;-75
2021/12/14 06:19:14;;;;;;;163.55;89.68;;;;;;;;;;4994250;28;20361;-74
2021/12/14 06:21:40;;;;;;;177.95;89.80;;;;;;;;;;4993185;28;20023;-75
2021/12/14 06:24:07;;;;;;;199.25;97.22;;;;;;;;;;4993801;28;20026;-75
2021/12/14 06:26:37;;;;;;;181.90;92.68;;;;;;;;;;5000801;23;20433;-74
2021/12/14 06:29:05;;;;;;;163.63;88.10;;;;;;;;;;4995977;28;20356;-75
2021/12/14 06:31:32;;;;;;;131.27;66.47;;;;;;;;;;4998730;28;20038;-77
2021/12/14 06:34:09;;;;;;;101.65;46.58;;;;;;;;;;4995710;28;20168;-75
2021/12/14 06:37:04;;;;;;;140.88;61.92;;;;;;;;;;4999820;28;20025;-77
2021/12/14 06:39:31;;;;;;;124.57;62.00;;;;;;;;;;4968358;28;20084;-75
2021/12/14 06:42:04;;;;;;;146.60;74.40;;;;;;;;;;4998711;28;20105;-77
2021/12/14 06:44:31;;;;;;;155.48;81.57;;;;;;;;;;5029161;23;20041;-76
2021/12/14 06:46:59;;;;;;;194.50;93.05;;;;;;;;;;5028709;23;20018;-77
2021/12/14 06:49:26;;;;;;;188.95;94.88;;;;;;;;;;5141996;23;20121;-74
2021/12/14 06:51:55;;;;;;;168.57;84.78;;;;;;;;;;5027439;23;20061;-76
2021/12/14 06:54:25;;;;;;;150.73;83.70;;;;;;;;;;4959167;29;20027;-75
2021/12/14 06:56:55;;;;;;;143.43;72.03;;;;;;;;;;4960719;29;20037;-75
2021/12/14 06:59:21;;;;;;;187.00;86.70;;;;;;;;;;4944286;29;20121;-74
2021/12/14 07:01:55;;;;;;;160.02;85.60;;;;;;;;;;4961356;28;20087;-73
2021/12/14 07:04:23;;;;;;;143.18;77.22;;;;;;;;;;4942945;29;20019;-76
2021/12/14 07:06:54;;;;;;;158.65;83.18;;;;;;;;;;4942868;29;20023;-76
2021/12/14 07:09:25;;;;;;;165.57;87.65;;;;;;;;;;4962057;28;20035;-75
2021/12/14 07:12:15;;;;;;;191.65;92.15;;;;;;;;;;4944421;29;20020;-75
2021/12/14 07:14:44;;;;;;;178.70;95.72;;;;;;;;;;4934531;29;20042;-77
2021/12/14 07:17:19;;;;;;;171.60;96.35;;;;;;;;;;4960513;29;20115;-76
2021/12/14 07:19:47;;;;;;;166.98;89.10;;;;;;;;;;4999935;23;20042;-76
2021/12/14 07:22:31;;;;;;;173.82;85.25;;;;;;;;;;4999604;28;20052;-76
2021/12/14 07:24:59;;;;;;;156.45;82.80;;;;;;;;;;5065934;23;20042;-77
2021/12/14 07:27:29;;;;;;;147.15;74.72;;;;;;;;;;5071130;23;20022;-75
2021/12/14 07:30:17;;;;;;;147.27;70.00;;;;;;;;;;5003594;23;20054;-76
2021/12/14 07:32:43;;;;;;;129.27;64.38;;;;;;;;;;4998980;28;20256;-75
2021/12/14 07:35:18;;;;;;;132.38;64.35;;;;;;;;;;4995054;28;20030;-74
2021/12/14 07:37:44;;;;;;;121.68;68.70;;;;;;;;;;4995331;28;20041;-74
2021/12/14 07:40:11;;;;;;;124.57;69.55;;;;;;;;;;4997271;28;20022;-74
2021/12/14 07:42:37;;;;;;;155.88;69.18;;;;;;;;;;4996509;28;20072;-75
2021/12/14 07:45:04;;;;;;;135.70;75.05;;;;;;;;;;4997073;28;20088;-77
2021/12/14 07:47:30;;;;;;;113.50;59.60;;;;;;;;;;4979754;28;20054;-78
2021/12/14 07:50:01;;;;;;;119.25;63.08;;;;;;;;;;5048154;23;20524;-78
2021/12/14 07:53:11;;;;;;;125.75;65.95;;;;;;;;;;4981248;28;20084;-79
2021/12/14 07:55:53;;;;;;;108.03;54.33;;;;;;;;;;4978643;28;20177;-77
2021/12/14 07:58:33;;;;;;;131.82;57.40;;;;;;;;;;4979678;28;20030;-77
2021/12/14 08:01:02;;;;;;;115.38;58.58;;;;;;;;;;4980096;28;20030;-78
2021/12/14 08:03:33;;;;;;;108.72;56.03;;;;;;;;;;4996761;28;20053;-77
2021/12/14 08:06:06;;;;;;;126.68;52.78;;;;;;;;;;4996677;28;20086;-78
2021/12/14 08:08:54;;;;;;;95.70;46.42;;;;;;;;;;4995043;28;20042;-78
2021/12/14 08:11:31;;;;;;;93.15;41.90;;;;;;;;;;4978744;28;20030;-78
2021/12/14 08:17:08;;;;;;;85.30;40.83;;;;;;;;;;4995682;28;20102;-75
2021/12/14 08:19:41;;;;;;;68.53;38.03;;;;;;;;;;4997884;28;20018;-76
2021/12/14 08:22:09;;;;;;;67.03;33.15;;;;;;;;;;4998488;28;20030;-76
2021/12/14 08:24:36;;;;;;;68.15;29.45;;;;;;;;;;4997487;28;20018;-76
2021/12/14 08:27:04;;;;;;;59.03;28.50;;;;;;;;;;4997357;28;20336;-77
2021/12/14 08:29:31;;;;;;;60.53;31.40;;;;;;;;;;4997041;28;20464;-76
2021/12/14 08:32:04;;;;;;;64.55;27.98;;;;;;;;;;4997706;28;20033;-76
2021/12/14 08:34:31;;;;;;;64.68;33.78;;;;;;;;;;5004263;23;20314;-82
2021/12/14 08:37:09;;;;;;;71.75;30.17;;;;;;;;;;5001766;28;20034;-83
2021/12/14 08:39:45;;;;;;;56.38;30.27;;;;;;;;;;4999672;28;20081;-82
2021/12/14 08:42:16;;;;;;;69.55;33.92;;;;;;;;;;5020983;23;20114;-78
2021/12/14 08:44:51;;;;;;;71.88;33.03;;;;;;;;;;4997186;28;20022;-77
2021/12/14 08:47:39;;;;;;;95.85;36.67;;;;;;;;;;4998533;28;20431;-76
2021/12/14 08:50:10;;;;;;;92.78;34.30;;;;;;;;;;5013538;23;20058;-77
2021/12/14 08:52:41;;;;;;;66.38;31.33;;;;;;;;;;4997086;28;20026;-77
2021/12/14 08:55:11;;;;;;;67.60;37.38;;;;;;;;;;4997270;28;20040;-75
2021/12/14 08:57:38;;;;;;;93.97;44.70;;;;;;;;;;4995800;28;20101;-77
2021/12/14 09:00:12;;;;;;;102.38;51.80;;;;;;;;;;4995649;28;20165;-76
2021/12/14 09:02:39;;;;;;;99.65;49.03;;;;;;;;;;4998046;28;20019;-76
2021/12/14 09:05:12;;;;;;;99.70;51.08;;;;;;;;;;4996644;28;20112;-77
2021/12/14 09:07:39;;;;;;;103.03;51.58;;;;;;;;;;4995599;28;20029;-77
2021/12/14 09:12:37;;;;;;;115.25;52.42;;;;;;;;;;5013084;23;20045;-76
2021/12/14 09:15:09;;;;;;;120.18;56.00;;;;;;;;;;4997657;28;20486;-77
2021/12/14 09:17:55;;;;;;;116.28;62.00;;;;;;;;;;4997843;28;20034;-77
2021/12/14 09:20:27;;;;;;;103.50;53.63;;;;;;;;;;5150913;23;20050;-77
2021/12/14 09:22:58;;;;;;;109.50;52.15;;;;;;;;;;4997971;28;20034;-77
2021/12/14 09:25:27;;;;;;;99.07;48.95;;;;;;;;;;4998202;28;20030;-77
2021/12/14 09:27:54;;;;;;;85.72;44.90;;;;;;;;;;4998382;28;20018;-77
2021/12/14 09:30:21;;;;;;;87.60;48.63;;;;;;;;;;4997622;28;20185;-77
2021/12/14 09:32:48;;;;;;;105.18;48.55;;;;;;;;;;4995670;28;20045;-76
2021/12/14 09:35:17;;;;;;;90.20;43.00;;;;;;;;;;4996759;28;20384;-77
2021/12/14 09:40:17;;;;;;;99.22;44.08;;;;;;;;;;5014416;23;20042;-76
2021/12/14 09:42:43;;;;;;;87.57;41.25;;;;;;;;;;5001164;28;20018;-76
2021/12/14 09:45:12;;;;;;;88.95;40.75;;;;;;;;;;4997419;28;20026;-77
2021/12/14 09:47:44;;;;;;;93.47;43.60;;;;;;;;;;5006942;23;20038;-81
2021/12/14 09:50:17;;;;;;;98.82;41.90;;;;;;;;;;5004356;28;20034;-81
2021/12/14 09:52:44;;;;;;;84.60;39.92;;;;;;;;;;5001388;28;20053;-81
2021/12/14 09:55:17;;;;;;;85.25;38.72;;;;;;;;;;5000345;28;20019;-81
2021/12/14 09:57:46;;;;;;;87.45;41.58;;;;;;;;;;5002742;23;20345;-76
2021/12/14 10:00:18;;;;;;;95.53;39.83;;;;;;;;;;5026692;23;20085;-77
2021/12/14 10:02:49;;;;;;;80.10;40.25;;;;;;;;;;4980070;28;20140;-78
2021/12/14 10:05:18;;;;;;;83.65;40.35;;;;;;;;;;4964416;28;20037;-77
2021/12/14 10:07:48;;;;;;;112.20;44.78;;;;;;;;;;4979868;28;20023;-78
2021/12/14 10:10:42;;;;;;;91.63;44.28;;;;;;;;;;4998730;23;20124;-77
2021/12/14 10:13:43;;;;;;;78.13;39.63;;;;;;;;;;5014057;23;20075;-75
2021/12/14 10:16:09;;;;;;;91.65;46.92;;;;;;;;;;5000526;28;20026;-76
2021/12/14 10:18:37;;;;;;;87.80;43.42;;;;;;;;;;5000987;28;20052;-76
2021/12/14 10:21:09;;;;;;;110.50;50.63;;;;;;;;;;5001631;28;20488;-76
2021/12/14 10:23:37;;;;;;;100.85;50.47;;;;;;;;;;5001139;28;20153;-76
2021/12/14 10:26:04;;;;;;;103.00;51.38;;;;;;;;;;5001168;28;20068;-76
2021/12/14 10:28:31;;;;;;;113.72;54.33;;;;;;;;;;4999781;28;20030;-76
2021/12/14 10:31:08;;;;;;;105.72;51.97;;;;;;;;;;5001743;28;20092;-76
2021/12/14 10:33:35;;;;;;;84.75;48.92;;;;;;;;;;4999800;28;20022;-76
2021/12/14 10:36:16;;;;;;;89.03;47.03;;;;;;;;;;4999072;28;20026;-76
2021/12/14 10:39:03;;;;;;;83.00;43.70;;;;;;;;;;5001254;28;20018;-76
2021/12/14 10:44:13;;;;;;;107.28;53.30;;;;;;;;;;5001058;28;20026;-76
2021/12/14 10:46:45;;;;;;;119.72;49.67;;;;;;;;;;5003527;28;20073;-76
2021/12/14 10:49:12;;;;;;;114.80;48.45;;;;;;;;;;5007401;28;20034;-76
2021/12/14 10:51:40;;;;;;;101.32;51.75;;;;;;;;;;5000891;28;20409;-76
2021/12/14 10:54:10;;;;;;;108.60;48.28;;;;;;;;;;5000790;28;20472;-76
2021/12/14 10:56:41;;;;;;;110.65;50.20;;;;;;;;;;5000386;28;20026;-76
2021/12/14 10:59:08;;;;;;;113.55;53.05;;;;;;;;;;5000726;28;20404;-74
2021/12/14 11:01:35;;;;;;;96.72;47.10;;;;;;;;;;5000843;28;20384;-75
2021/12/14 11:04:05;;;;;;;110.60;54.17;;;;;;;;;;5000269;28;20022;-75
2021/12/14 11:06:33;;;;;;;146.10;62.30;;;;;;;;;;5000963;28;20025;-76
2021/12/14 11:11:49;;;;;;;160.98;72.30;;;;;;;;;;5000660;28;20026;-76
2021/12/14 11:14:18;;;;;;;204.07;89.05;;;;;;;;;;5001515;28;20064;-76
2021/12/14 11:19:38;;;;;;;203.85;100.65;;;;;;;;;;4999213;28;20396;-76
2021/12/14 11:22:10;;;;;;;190.65;87.07;;;;;;;;;;4998041;28;20049;-76
2021/12/14 11:24:37;;;;;;;168.43;79.68;;;;;;;;;;4999893;28;20425;-76
2021/12/14 11:27:14;;;;;;;173.05;77.50;;;;;;;;;;4999358;28;20030;-76
2021/12/14 11:29:40;;;;;;;153.52;76.68;;;;;;;;;;4998673;28;20034;-76
2021/12/14 11:32:07;;;;;;;158.75;75.43;;;;;;;;;;5001965;28;20041;-76
2021/12/14 11:34:36;;;;;;;137.80;73.22;;;;;;;;;;4999047;28;20033;-76
2021/12/14 11:37:07;;;;;;;153.52;78.70;;;;;;;;;;4999962;28;20027;-76
2021/12/14 11:39:41;;;;;;;180.45;84.88;;;;;;;;;;5000264;28;20018;-76
2021/12/14 11:42:07;;;;;;;166.07;83.60;;;;;;;;;;5000181;28;20023;-76
2021/12/14 11:44:35;;;;;;;142.40;75.88;;;;;;;;;;5000014;28;20033;-76
2021/12/14 11:47:41;;;;;;;117.15;63.85;;;;;;;;;;4999556;28;20088;-76
2021/12/14 11:50:03;;;;;;;114.22;61.67;;;;;;;;;;5000136;28;20041;-76
2021/12/14 11:52:32;;;;;;;107.22;54.33;;;;;;;;;;4982469;28;20034;-76
2021/12/14 11:54:58;;;;;;;108.32;61.22;;;;;;;;;;4998994;28;20021;-76
2021/12/14 11:57:30;;;;;;;109.72;59.78;;;;;;;;;;4999089;28;20018;-76
2021/12/14 12:00:03;;;;;;;128.90;65.30;;;;;;;;;;5001611;28;20050;-76
2021/12/14 12:02:29;;;;;;;160.73;75.38;;;;;;;;;;5002282;28;20057;-76
2021/12/14 12:04:57;;;;;;;148.98;70.32;;;;;;;;;;4989180;28;20121;-76
2021/12/14 12:10:08;;;;;;;159.43;74.13;;;;;;;;;;4998874;28;20034;-76
2021/12/14 12:12:38;;;;;;;154.88;78.85;;;;;;;;;;5000439;28;20030;-75
2021/12/14 12:15:10;;;;;;;157.23;80.50;;;;;;;;;;4999023;28;20018;-75
2021/12/14 12:17:38;;;;;;;146.98;74.63;;;;;;;;;;4982030;28;20018;-76
2021/12/14 12:20:08;;;;;;;145.65;79.35;;;;;;;;;;4999426;28;20360;-76
2021/12/14 12:22:37;;;;;;;154.85;75.70;;;;;;;;;;4999529;28;20019;-76
2021/12/14 12:25:05;;;;;;;152.90;73.00;;;;;;;;;;4997705;28;20018;-75
2021/12/14 12:27:44;;;;;;;132.93;71.22;;;;;;;;;;4998123;28;20306;-76
2021/12/14 12:30:32;;;;;;;125.53;64.45;;;;;;;;;;4998096;28;20035;-76
2021/12/14 12:33:24;;;;;;;116.95;59.72;;;;;;;;;;4998639;28;20129;-76
2021/12/14 12:35:50;;;;;;;126.25;61.95;;;;;;;;;;4996378;28;20373;-76
2021/12/14 12:38:34;;;;;;;131.43;66.35;;;;;;;;;;4999094;28;20157;-76
2021/12/14 12:41:12;;;;;;;130.88;63.03;;;;;;;;;;4999138;28;20022;-76
2021/12/14 12:43:49;;;;;;;128.13;63.90;;;;;;;;;;4998523;28;20114;-76
2021/12/14 12:46:18;;;;;;;119.78;62.40;;;;;;;;;;4998922;28;20352;-76
2021/12/14 12:48:46;;;;;;;128.23;70.95;;;;;;;;;;4998614;28;20037;-76
2021/12/14 12:51:32;;;;;;;118.15;62.50;;;;;;;;;;4998707;28;20019;-76
2021/12/14 12:54:12;;;;;;;121.78;59.67;;;;;;;;;;4998766;28;20034;-76
2021/12/14 12:56:40;;;;;;;118.18;61.75;;;;;;;;;;4998929;28;20018;-76
2021/12/14 12:59:08;;;;;;;124.78;63.40;;;;;;;;;;4998617;28;20022;-76
2021/12/14 13:01:35;;;;;;;121.47;63.38;;;;;;;;;;4998723;28;20049;-76
2021/12/14 13:04:01;;;;;;;116.82;58.53;;;;;;;;;;4999558;28;20022;-76
2021/12/14 13:06:27;;;;;;;120.25;59.47;;;;;;;;;;4997248;28;20034;-76
2021/12/14 13:08:57;;;;;;;115.57;56.15;;;;;;;;;;4998438;28;20034;-76
2021/12/14 13:11:25;;;;;;;108.25;55.65;;;;;;;;;;4998581;28;20365;-76
2021/12/14 13:13:59;;;;;;;119.85;59.65;;;;;;;;;;4999165;28;20084;-76
2021/12/14 13:16:26;;;;;;;108.25;56.50;;;;;;;;;;4998480;28;20109;-76
2021/12/14 13:18:57;;;;;;;106.97;58.20;;;;;;;;;;4999509;28;20026;-76
2021/12/14 13:21:23;;;;;;;;;;;;;;;;;;4998958;28;20018;-76
2021/12/14 13:23:49;;;;;;;100.63;57.00;;;;;;;;;;4998462;28;19912;-76
2021/12/14 13:26:23;;;;;;;108.75;59.13;;;;;;;;;;4998210;28;20026;-76
2021/12/14 13:28:51;;;;;;;115.68;60.03;;;;;;;;;;4997262;28;20034;-76
2021/12/14 13:31:31;;;;;;;103.90;57.60;;;;;;;;;;4997761;28;20022;-76
2021/12/14 13:33:58;;;;;;;108.40;52.30;;;;;;;;;;4997090;28;20053;-76
2021/12/14 13:36:24;;;;;;;100.93;54.30;;;;;;;;;;4997082;28;20045;-76
2021/12/14 13:38:50;;;;;;;110.07;54.78;;;;;;;;;;4998181;28;20441;-76
2021/12/14 13:41:26;;;;;;;120.68;57.05;;;;;;;;;;4997016;28;20041;-76
2021/12/14 13:43:53;;;;;;;119.82;62.05;;;;;;;;;;4997582;28;20022;-76
2021/12/14 13:46:19;;;;;;;122.38;61.83;;;;;;;;;;4998151;28;20450;-76
2021/12/14 13:48:45;;;;;;;117.13;60.33;;;;;;;;;;4996691;28;20033;-76
2021/12/14 13:51:13;;;;;;;114.13;57.00;;;;;;;;;;5001144;28;20025;-76
2021/12/14 13:53:39;;;;;;;108.63;53.13;;;;;;;;;;4998126;28;20443;-76
2021/12/14 13:56:08;;;;;;;101.20;52.75;;;;;;;;;;4997504;28;20026;-76
2021/12/14 13:58:35;;;;;;;102.10;49.50;;;;;;;;;;4997969;28;20033;-76
2021/12/14 14:01:10;;;;;;;99.82;48.55;;;;;;;;;;4996614;28;20112;-76
2021/12/14 14:03:39;;;;;;;85.07;43.63;;;;;;;;;;4997324;28;20046;-76
2021/12/14 14:06:07;;;;;;;95.65;45.28;;;;;;;;;;4996731;28;20026;-76
2021/12/14 14:08:50;;;;;;;95.38;44.58;;;;;;;;;;4997754;28;20030;-76
2021/12/14 14:11:22;;;;;;;88.97;46.63;;;;;;;;;;4997818;28;20018;-76
2021/12/14 14:13:49;;;;;;;120.45;57.03;;;;;;;;;;4998145;28;20432;-76
2021/12/14 14:16:15;;;;;;;116.78;52.72;;;;;;;;;;4997139;28;20141;-76
2021/12/14 14:18:43;;;;;;;98.53;55.22;;;;;;;;;;4996509;28;20033;-76
2021/12/14 14:21:11;;;;;;;115.43;55.38;;;;;;;;;;4996993;28;20027;-76
2021/12/14 14:23:42;;;;;;;102.03;55.05;;;;;;;;;;4997048;28;20092;-76
2021/12/14 14:26:11;;;;;;;101.30;53.70;;;;;;;;;;4997076;28;20046;-76
2021/12/14 14:28:40;;;;;;;93.55;49.60;;;;;;;;;;4999950;28;20416;-76
2021/12/14 14:31:07;;;;;;;91.22;52.25;;;;;;;;;;4997156;28;20049;-76
2021/12/14 14:33:48;;;;;;;109.80;54.45;;;;;;;;;;4997245;28;20014;-76
2021/12/14 14:36:24;;;;;;;105.95;53.42;;;;;;;;;;4997165;28;20015;-76
2021/12/14 14:38:51;;;;;;;90.72;47.60;;;;;;;;;;4996493;28;20369;-76
2021/12/14 14:41:19;;;;;;;89.72;46.85;;;;;;;;;;4997073;28;20030;-76
2021/12/14 14:44:04;;;;;;;95.72;46.92;;;;;;;;;;4998991;28;20022;-76
2021/12/14 14:46:39;;;;;;;95.90;48.88;;;;;;;;;;4980123;28;20030;-76
2021/12/14 14:49:06;;;;;;;87.50;44.05;;;;;;;;;;4996245;28;20073;-76
2021/12/14 14:51:44;;;;;;;87.03;44.97;;;;;;;;;;4996546;28;20022;-75
2021/12/14 14:54:29;;;;;;;92.90;48.30;;;;;;;;;;4996894;28;20121;-76
2021/12/14 14:56:55;;;;;;;95.72;50.10;;;;;;;;;;4999050;28;20429;-76
2021/12/14 14:59:21;;;;;;;97.47;50.00;;;;;;;;;;5001090;28;20085;-75
2021/12/14 15:01:47;;;;;;;93.65;50.25;;;;;;;;;;5003887;28;20097;-76
2021/12/14 15:04:13;;;;;;;100.22;50.72;;;;;;;;;;5000915;28;20028;-76
2021/12/14 15:06:39;;;;;;;98.57;49.72;;;;;;;;;;5001045;28;20022;-75
2021/12/14 15:09:05;;;;;;;90.22;49.17;;;;;;;;;;4983448;28;20499;-76
2021/12/14 15:11:39;;;;;;;104.22;51.40;;;;;;;;;;5000517;28;20022;-76
2021/12/14 15:14:18;;;;;;;118.43;55.90;;;;;;;;;;5000287;28;20026;-75
2021/12/14 15:16:49;;;;;;;111.13;56.42;;;;;;;;;;5001549;28;20049;-76
2021/12/14 15:19:20;;;;;;;114.82;57.40;;;;;;;;;;5000660;28;20069;-76
2021/12/14 15:21:52;;;;;;;120.85;63.55;;;;;;;;;;4998947;28;20014;-76
2021/12/14 15:24:24;;;;;;;111.78;57.95;;;;;;;;;;5000219;28;20314;-76